createdAt,value
2018-04-12T00:00:26.297Z,7.20
2018-04-12T00:01:26.355Z,9.20
2018-04-12T00:02:26.413Z,7.20
2018-04-12T00:03:26.477Z,9.00
2018-04-12T00:04:26.530Z,11.00
2018-04-12T00:05:26.585Z,9.20
2018-04-12T00:06:26.642Z,6.40
2018-04-12T00:07:26.702Z,8.80
2018-04-12T00:08:26.758Z,6.20
2018-04-12T00:09:27.067Z,10.40
2018-04-12T00:10:26.875Z,9.40
2018-04-12T00:11:26.932Z,10.40
2018-04-12T00:12:26.989Z,6.40
2018-04-12T00:13:27.047Z,6.80
2018-04-12T00:14:27.106Z,8.80
2018-04-12T00:15:27.164Z,6.90
2018-04-12T00:16:27.222Z,10.40
2018-04-12T00:17:27.278Z,10.10
2018-04-12T00:18:27.335Z,9.50
2018-04-12T00:19:27.394Z,8.00
2018-04-12T00:20:27.451Z,7.90
2018-04-12T00:21:27.512Z,8.50
2018-04-12T00:22:27.568Z,6.30
2018-04-12T00:23:27.625Z,8.30
2018-04-12T00:24:27.682Z,10.10
2018-04-12T00:25:27.741Z,10.10
2018-04-12T00:26:27.798Z,8.00
2018-04-12T00:27:27.858Z,9.70
2018-04-12T00:28:27.911Z,11.30
2018-04-12T00:29:27.970Z,12.00
2018-04-12T00:30:28.029Z,8.90
2018-04-12T00:31:28.087Z,6.60
2018-04-12T00:32:28.392Z,6.70
2018-04-12T00:33:28.201Z,10.20
2018-04-12T00:34:28.260Z,9.50
2018-04-12T00:35:28.317Z,9.00
2018-04-12T00:36:28.372Z,11.20
2018-04-12T00:37:28.430Z,13.00
2018-04-12T00:38:28.489Z,7.50
2018-04-12T00:39:28.548Z,12.60
2018-04-12T00:40:28.603Z,9.40
2018-04-12T00:41:28.666Z,9.50
2018-04-12T00:42:28.719Z,9.00
2018-04-12T00:43:28.776Z,9.30
2018-04-12T00:44:28.835Z,12.30
2018-04-12T00:45:28.891Z,9.90
2018-04-12T00:46:28.950Z,9.40
2018-04-12T00:47:29.007Z,8.30
2018-04-12T00:48:29.064Z,8.50
2018-04-12T00:49:29.133Z,9.40
2018-04-12T00:50:29.180Z,6.50
2018-04-12T00:51:29.238Z,7.00
2018-04-12T00:52:29.293Z,9.30
2018-04-12T00:53:29.351Z,9.30
2018-04-12T00:54:29.660Z,6.20
2018-04-12T00:55:29.469Z,6.20
2018-04-12T00:56:29.523Z,10.00
2018-04-12T00:57:29.582Z,6.40
2018-04-12T00:58:29.640Z,6.60
2018-04-12T00:59:29.949Z,14.50
2018-04-12T01:00:29.761Z,7.50
2018-04-12T01:01:29.813Z,9.30
2018-04-12T01:02:29.871Z,6.60
2018-04-12T01:03:29.931Z,8.30
2018-04-12T01:04:29.987Z,8.10
2018-04-12T01:05:30.294Z,9.10
2018-04-12T01:06:30.146Z,8.00
2018-04-12T01:07:30.162Z,9.30
2018-04-12T01:08:30.224Z,5.90
2018-04-12T01:09:30.273Z,6.60
2018-04-12T01:10:30.333Z,5.90
2018-04-12T01:11:30.389Z,9.10
2018-04-12T01:12:30.446Z,7.50
2018-04-12T01:13:30.503Z,6.60
2018-04-12T01:14:30.563Z,7.00
2018-04-12T01:15:30.620Z,6.60
2018-04-12T01:16:30.675Z,9.10
2018-04-12T01:17:30.733Z,6.00
2018-04-12T01:18:30.792Z,8.90
2018-04-12T01:19:30.849Z,8.80
2018-04-12T01:20:30.906Z,7.80
2018-04-12T01:21:30.964Z,6.70
2018-04-12T01:22:31.023Z,9.00
2018-04-12T01:23:31.082Z,9.00
2018-04-12T01:24:31.136Z,9.20
2018-04-12T01:25:31.193Z,8.10
2018-04-12T01:26:31.249Z,6.20
2018-04-12T01:27:31.307Z,9.90
2018-04-12T01:28:31.364Z,9.90
2018-04-12T01:29:31.421Z,12.20
2018-04-12T01:30:31.479Z,10.50
2018-04-12T01:31:31.536Z,9.20
2018-04-12T01:32:31.594Z,7.90
2018-04-12T01:33:31.652Z,8.50
2018-04-12T01:34:31.709Z,8.50
2018-04-12T01:35:31.767Z,8.50
2018-04-12T01:36:31.823Z,7.90
2018-04-12T01:37:31.881Z,9.00
2018-04-12T01:38:31.938Z,7.90
2018-04-12T01:39:31.997Z,8.10
2018-04-12T01:40:32.052Z,6.70
2018-04-12T01:41:32.109Z,10.00
2018-04-12T01:42:32.167Z,7.60
2018-04-12T01:43:32.225Z,7.60
2018-04-12T01:44:32.281Z,7.80
2018-04-12T01:45:32.339Z,6.00
2018-04-12T01:46:32.397Z,9.40
2018-04-12T01:47:32.453Z,7.90
2018-04-12T01:48:32.511Z,8.20
2018-04-12T01:49:32.568Z,6.90
2018-04-12T01:50:32.625Z,7.20
2018-04-12T01:51:32.682Z,8.00
2018-04-12T01:52:32.739Z,8.90
2018-04-12T01:53:32.796Z,7.10
2018-04-12T01:54:32.854Z,10.00
2018-04-12T01:55:32.911Z,12.00
2018-04-12T01:56:32.967Z,10.00
2018-04-12T01:57:33.026Z,8.60
2018-04-12T01:58:33.086Z,10.60
2018-04-12T01:59:33.140Z,6.90
2018-04-12T02:00:33.196Z,12.50
2018-04-12T02:01:33.253Z,6.80
2018-04-12T02:02:33.310Z,10.60
2018-04-12T02:03:33.369Z,11.20
2018-04-12T02:04:33.425Z,9.80
2018-04-12T02:05:33.482Z,8.90
2018-04-12T02:06:33.541Z,10.40
2018-04-12T02:07:33.598Z,13.80
2018-04-12T02:08:33.655Z,8.30
2018-04-12T02:09:33.713Z,8.50
2018-04-12T02:10:33.770Z,11.50
2018-04-12T02:11:33.827Z,11.40
2018-04-12T02:12:33.883Z,11.20
2018-04-12T02:13:33.941Z,9.70
2018-04-12T02:14:34.004Z,11.90
2018-04-12T02:15:34.058Z,9.60
2018-04-12T02:16:34.114Z,10.60
2018-04-12T02:17:34.173Z,8.70
2018-04-12T02:18:34.228Z,9.80
2018-04-12T02:19:34.287Z,14.00
2018-04-12T02:20:34.342Z,10.10
2018-04-12T02:21:34.400Z,8.00
2018-04-12T02:22:34.461Z,10.60
2018-04-12T02:23:34.517Z,11.40
2018-04-12T02:24:34.573Z,18.50
2018-04-12T02:25:34.630Z,10.10
2018-04-12T02:26:34.688Z,12.60
2018-04-12T02:27:34.746Z,10.70
2018-04-12T02:28:34.801Z,11.90
2018-04-12T02:29:34.860Z,15.40
2018-04-12T02:30:34.920Z,16.30
2018-04-12T02:31:34.975Z,14.40
2018-04-12T02:32:35.034Z,13.10
2018-04-12T02:33:35.090Z,12.80
2018-04-12T02:34:35.147Z,9.70
2018-04-12T02:35:35.208Z,12.20
2018-04-12T02:36:35.261Z,15.40
2018-04-12T02:37:35.320Z,14.00
2018-04-12T02:38:35.386Z,12.70
2018-04-12T02:39:35.435Z,10.70
2018-04-12T02:40:35.491Z,10.70
2018-04-12T02:41:35.550Z,11.00
2018-04-12T02:42:35.606Z,13.70
2018-04-12T02:43:35.664Z,14.50
2018-04-12T02:44:35.722Z,15.70
2018-04-12T02:45:35.779Z,14.30
2018-04-12T02:46:35.836Z,7.50
2018-04-12T02:47:35.895Z,12.90
2018-04-12T02:48:35.952Z,15.70
2018-04-12T02:49:36.011Z,15.60
2018-04-12T02:50:36.072Z,18.20
2018-04-12T02:51:36.125Z,16.10
2018-04-12T02:52:36.181Z,11.20
2018-04-12T02:53:36.239Z,16.30
2018-04-12T02:54:36.296Z,11.50
2018-04-12T02:55:36.353Z,20.90
2018-04-12T02:56:36.412Z,13.50
2018-04-12T02:57:36.468Z,9.70
2018-04-12T02:58:36.527Z,6.20
2018-04-12T02:59:36.584Z,6.90
2018-04-12T03:00:36.643Z,6.70
2018-04-12T03:01:36.698Z,5.90
2018-04-12T03:02:36.756Z,7.40
2018-04-12T03:03:36.814Z,12.50
2018-04-12T03:04:36.870Z,8.90
2018-04-12T03:05:36.931Z,8.40
2018-04-12T03:06:36.986Z,8.30
2018-04-12T03:07:37.046Z,8.60
2018-04-12T03:08:37.100Z,6.50
2018-04-12T03:09:37.158Z,9.50
2018-04-12T03:10:37.215Z,11.90
2018-04-12T03:11:37.274Z,12.50
2018-04-12T03:12:37.330Z,9.80
2018-04-12T03:13:37.387Z,8.80
2018-04-12T03:14:37.445Z,9.20
2018-04-12T03:15:37.502Z,10.30
2018-04-12T03:16:37.559Z,7.70
2018-04-12T03:17:37.615Z,9.30
2018-04-12T03:18:37.673Z,9.10
2018-04-12T03:19:37.731Z,10.00
2018-04-12T03:20:38.104Z,10.40
2018-04-12T03:21:37.874Z,10.20
2018-04-12T03:22:37.903Z,11.40
2018-04-12T03:23:37.961Z,10.50
2018-04-12T03:24:38.017Z,8.20
2018-04-12T03:25:38.075Z,6.40
2018-04-12T03:26:38.133Z,7.90
2018-04-12T03:27:38.499Z,11.40
2018-04-12T03:28:38.289Z,7.90
2018-04-12T03:29:38.305Z,5.90
2018-04-12T03:30:38.362Z,8.60
2018-04-12T03:31:38.420Z,6.20
2018-04-12T03:32:38.477Z,8.40
2018-04-12T03:33:38.533Z,14.00
2018-04-12T03:34:38.591Z,10.60
2018-04-12T03:35:38.651Z,13.70
2018-04-12T03:36:38.705Z,9.20
2018-04-12T03:37:38.764Z,10.50
2018-04-12T03:38:38.820Z,10.50
2018-04-12T03:39:38.878Z,11.70
2018-04-12T03:40:38.935Z,13.70
2018-04-12T03:41:38.992Z,14.10
2018-04-12T03:42:39.049Z,16.30
2018-04-12T03:43:39.112Z,19.00
2018-04-12T03:44:39.164Z,15.10
2018-04-12T03:45:39.224Z,20.40
2018-04-12T03:46:39.279Z,17.50
2018-04-12T03:47:39.338Z,14.30
2018-04-12T03:48:39.472Z,15.50
2018-04-12T03:49:39.462Z,16.50
2018-04-12T03:50:39.590Z,17.00
2018-04-12T03:51:39.567Z,16.40
2018-04-12T03:52:39.625Z,12.20
2018-04-12T03:53:39.683Z,12.50
2018-04-12T03:54:39.741Z,19.20
2018-04-12T03:55:39.797Z,17.20
2018-04-12T03:56:39.856Z,17.60
2018-04-12T03:57:39.912Z,17.40
2018-04-12T03:58:39.970Z,20.80
2018-04-12T03:59:40.029Z,20.20
2018-04-12T04:00:40.084Z,18.30
2018-04-12T04:01:40.150Z,18.40
2018-04-12T04:02:40.201Z,18.20
2018-04-12T04:03:40.282Z,19.80
2018-04-12T04:04:40.315Z,20.60
2018-04-12T04:05:40.373Z,18.80
2018-04-12T04:06:40.429Z,18.00
2018-04-12T04:07:40.490Z,20.40
2018-04-12T04:08:40.544Z,21.70
2018-04-12T04:09:40.606Z,20.90
2018-04-12T04:10:40.660Z,19.90
2018-04-12T04:11:40.719Z,17.40
2018-04-12T04:12:40.776Z,20.40
2018-04-12T04:13:40.834Z,21.20
2018-04-12T04:14:40.892Z,20.60
2018-04-12T04:15:40.949Z,20.00
2018-04-12T04:16:41.006Z,20.60
2018-04-12T04:17:41.064Z,18.60
2018-04-12T04:18:41.121Z,25.10
2018-04-12T04:19:41.179Z,20.50
2018-04-12T04:20:41.235Z,23.70
2018-04-12T04:21:41.295Z,23.40
2018-04-12T04:22:41.352Z,18.80
2018-04-12T04:23:41.410Z,21.40
2018-04-12T04:24:41.465Z,21.30
2018-04-12T04:25:41.524Z,19.50
2018-04-12T04:26:41.585Z,19.70
2018-04-12T04:27:41.641Z,21.80
2018-04-12T04:28:41.698Z,21.70
2018-04-12T04:29:41.755Z,14.40
2018-04-12T04:30:41.813Z,11.90
2018-04-12T04:31:41.874Z,11.10
2018-04-12T04:32:41.927Z,16.50
2018-04-12T04:33:41.983Z,23.20
2018-04-12T04:34:42.043Z,19.90
2018-04-12T04:35:42.099Z,17.90
2018-04-12T04:36:42.159Z,22.40
2018-04-12T04:37:42.216Z,22.70
2018-04-12T04:38:42.274Z,20.30
2018-04-12T04:39:42.335Z,22.40
2018-04-12T04:40:42.386Z,23.30
2018-04-12T04:41:42.445Z,23.30
2018-04-12T04:42:42.503Z,20.80
2018-04-12T04:43:42.561Z,24.40
2018-04-12T04:44:42.623Z,21.90
2018-04-12T04:45:42.676Z,22.10
2018-04-12T04:46:43.122Z,22.50
2018-04-12T04:47:42.791Z,21.20
2018-04-12T04:48:42.846Z,21.10
2018-04-12T04:49:42.906Z,20.80
2018-04-12T04:50:42.970Z,27.00
2018-04-12T04:51:43.021Z,21.70
2018-04-12T04:52:43.077Z,26.30
2018-04-12T04:53:43.135Z,24.10
2018-04-12T04:54:43.192Z,22.40
2018-04-12T04:55:43.251Z,20.90
2018-04-12T04:56:43.306Z,21.40
2018-04-12T04:57:43.366Z,20.00
2018-04-12T04:58:43.424Z,21.10
2018-04-12T04:59:43.481Z,20.90
2018-04-12T05:00:43.537Z,21.70
2018-04-12T05:01:43.596Z,20.70
2018-04-12T05:02:43.653Z,20.30
2018-04-12T05:03:43.714Z,22.10
2018-04-12T05:04:43.767Z,21.90
2018-04-12T05:05:43.827Z,21.10
2018-04-12T05:06:43.884Z,21.40
2018-04-12T05:07:44.089Z,23.00
2018-04-12T05:08:43.999Z,21.60
2018-04-12T05:09:44.056Z,24.30
2018-04-12T05:10:44.115Z,22.90
2018-04-12T05:11:44.172Z,20.10
2018-04-12T05:12:44.229Z,23.10
2018-04-12T05:13:44.288Z,23.00
2018-04-12T05:14:44.348Z,17.50
2018-04-12T05:15:44.663Z,12.60
2018-04-12T05:16:44.463Z,12.40
2018-04-12T05:17:44.517Z,13.30
2018-04-12T05:18:44.576Z,14.80
2018-04-12T05:19:44.634Z,18.00
2018-04-12T05:20:44.690Z,14.70
2018-04-12T05:21:44.752Z,19.00
2018-04-12T05:22:44.806Z,17.10
2018-04-12T05:23:44.863Z,18.30
2018-04-12T05:24:44.920Z,17.40
2018-04-12T05:25:44.978Z,20.00
2018-04-12T05:26:45.084Z,19.30
2018-04-12T05:27:45.144Z,18.80
2018-04-12T05:28:45.155Z,19.30
2018-04-12T05:29:45.210Z,18.50
2018-04-12T05:30:45.268Z,11.60
2018-04-12T05:31:45.326Z,14.10
2018-04-12T05:32:45.384Z,13.50
2018-04-12T05:33:45.473Z,12.90
2018-04-12T05:34:45.540Z,15.50
2018-04-12T05:35:45.572Z,16.60
2018-04-12T05:36:45.917Z,18.60
2018-04-12T05:37:45.672Z,19.50
2018-04-12T05:38:46.195Z,18.60
2018-04-12T05:39:45.788Z,16.90
2018-04-12T05:40:45.846Z,15.60
2018-04-12T05:41:45.933Z,14.70
2018-04-12T05:42:45.993Z,14.40
2018-04-12T05:43:46.054Z,16.40
2018-04-12T05:44:46.167Z,16.30
2018-04-12T05:45:46.165Z,17.00
2018-04-12T05:46:46.191Z,17.60
2018-04-12T05:47:46.250Z,13.80
2018-04-12T05:48:46.307Z,12.60
2018-04-12T05:49:46.364Z,9.40
2018-04-12T05:50:46.422Z,13.20
2018-04-12T05:51:46.480Z,12.50
2018-04-12T05:52:46.541Z,15.70
2018-04-12T05:53:46.640Z,13.00
2018-04-12T05:54:46.657Z,19.20
2018-04-12T05:55:46.713Z,16.00
2018-04-12T05:56:46.773Z,16.30
2018-04-12T05:57:46.828Z,12.10
2018-04-12T05:58:46.886Z,11.70
2018-04-12T05:59:46.944Z,12.20
2018-04-12T06:00:47.021Z,8.10
2018-04-12T06:01:47.061Z,9.10
2018-04-12T06:02:47.118Z,8.10
2018-04-12T06:03:47.175Z,9.60
2018-04-12T06:04:47.233Z,12.40
2018-04-12T06:05:47.292Z,14.20
2018-04-12T06:06:47.500Z,17.50
2018-04-12T06:07:47.408Z,18.70
2018-04-12T06:08:47.468Z,14.80
2018-04-12T06:09:47.525Z,20.60
2018-04-12T06:10:47.583Z,20.00
2018-04-12T06:11:47.642Z,20.30
2018-04-12T06:12:47.702Z,17.50
2018-04-12T06:13:47.758Z,18.20
2018-04-12T06:14:47.817Z,16.80
2018-04-12T06:15:47.876Z,17.80
2018-04-12T06:16:47.934Z,18.00
2018-04-12T06:17:47.993Z,12.10
2018-04-12T06:18:48.051Z,10.80
2018-04-12T06:19:48.110Z,8.40
2018-04-12T06:20:48.168Z,8.40
2018-04-12T06:21:48.228Z,8.90
2018-04-12T06:22:48.286Z,10.30
2018-04-12T06:23:48.344Z,11.20
2018-04-12T06:24:48.405Z,12.30
2018-04-12T06:25:48.462Z,12.20
2018-04-12T06:26:48.521Z,11.70
2018-04-12T06:27:48.579Z,15.50
2018-04-12T06:28:48.719Z,13.10
2018-04-12T06:29:48.711Z,16.90
2018-04-12T06:30:48.756Z,14.90
2018-04-12T06:31:48.818Z,20.70
2018-04-12T06:32:49.185Z,14.80
2018-04-12T06:33:48.993Z,16.50
2018-04-12T06:34:48.992Z,16.10
2018-04-12T06:35:49.054Z,16.90
2018-04-12T06:36:49.111Z,18.30
2018-04-12T06:37:49.185Z,20.40
2018-04-12T06:38:49.230Z,19.50
2018-04-12T06:39:49.303Z,19.50
2018-04-12T06:40:49.347Z,18.70
2018-04-12T06:41:49.409Z,16.90
2018-04-12T06:42:49.467Z,20.80
2018-04-12T06:43:49.903Z,16.90
2018-04-12T06:44:49.588Z,17.80
2018-04-12T06:45:49.649Z,18.60
2018-04-12T06:46:49.703Z,16.30
2018-04-12T06:47:49.788Z,19.70
2018-04-12T06:48:49.821Z,17.30
2018-04-12T06:49:50.192Z,21.00
2018-04-12T06:50:49.940Z,18.50
2018-04-12T06:51:49.997Z,18.40
2018-04-12T06:52:50.055Z,19.20
2018-04-12T06:53:50.114Z,16.40
2018-04-12T06:54:50.491Z,16.50
2018-04-12T06:55:50.233Z,17.20
2018-04-12T06:56:50.292Z,16.90
2018-04-12T06:57:50.350Z,20.20
2018-04-12T06:58:50.437Z,18.70
2018-04-12T06:59:50.480Z,21.30
2018-04-12T07:00:50.534Z,21.30
2018-04-12T07:01:50.587Z,19.10
2018-04-12T07:02:50.645Z,21.10
2018-04-12T07:03:50.705Z,23.70
2018-04-12T07:04:50.763Z,20.50
2018-04-12T07:05:50.858Z,19.60
2018-04-12T07:06:50.882Z,19.60
2018-04-12T07:07:50.942Z,19.30
2018-04-12T07:08:51.000Z,23.60
2018-04-12T07:09:51.060Z,22.50
2018-04-12T07:10:51.123Z,20.70
2018-04-12T07:11:51.178Z,21.70
2018-04-12T07:12:51.253Z,21.70
2018-04-12T07:13:51.297Z,19.40
2018-04-12T07:14:51.355Z,21.90
2018-04-12T07:15:51.415Z,19.90
2018-04-12T07:16:51.477Z,17.10
2018-04-12T07:17:51.599Z,19.70
2018-04-12T07:18:51.596Z,19.30
2018-04-12T07:19:51.966Z,20.00
2018-04-12T07:20:52.210Z,18.10
2018-04-12T07:21:51.775Z,22.40
2018-04-12T07:22:51.867Z,24.20
2018-04-12T07:23:51.896Z,20.90
2018-04-12T07:24:51.956Z,24.60
2018-04-12T07:25:52.016Z,21.10
2018-04-12T07:26:52.081Z,22.60
2018-04-12T07:27:52.140Z,25.50
2018-04-12T07:28:52.198Z,26.20
2018-04-12T07:29:52.259Z,24.80
2018-04-12T07:30:52.322Z,24.80
2018-04-12T07:31:52.402Z,21.70
2018-04-12T07:32:52.440Z,23.80
2018-04-12T07:33:52.506Z,23.00
2018-04-12T07:34:52.566Z,26.50
2018-04-12T07:35:52.623Z,21.90
2018-04-12T07:36:52.684Z,23.50
2018-04-12T07:37:52.745Z,20.90
2018-04-12T07:38:52.806Z,22.60
2018-04-12T07:39:52.866Z,21.50
2018-04-12T07:40:52.927Z,23.90
2018-04-12T07:41:52.988Z,19.90
2018-04-12T07:42:53.049Z,22.60
2018-04-12T07:43:53.110Z,22.00
2018-04-12T07:44:53.171Z,23.20
2018-04-12T07:45:53.231Z,23.40
2018-04-12T07:46:53.294Z,23.10
2018-04-12T07:47:53.354Z,24.60
2018-04-12T07:48:53.418Z,23.40
2018-04-12T07:49:53.476Z,22.10
2018-04-12T07:50:53.539Z,22.80
2018-04-12T07:51:53.601Z,25.70
2018-04-12T07:52:53.661Z,21.20
2018-04-12T07:53:53.772Z,22.80
2018-04-12T07:54:53.804Z,20.90
2018-04-12T07:55:54.334Z,22.50
2018-04-12T07:56:53.907Z,21.80
2018-04-12T07:57:53.977Z,21.00
2018-04-12T07:58:54.030Z,20.60
2018-04-12T07:59:54.476Z,18.80
2018-04-12T08:00:54.154Z,24.40
2018-04-12T08:01:54.541Z,21.40
2018-04-12T08:02:54.278Z,22.10
2018-04-12T08:03:54.338Z,22.20
2018-04-12T08:04:54.401Z,20.60
2018-04-12T08:05:54.518Z,20.80
2018-04-12T08:06:54.524Z,23.90
2018-04-12T08:07:54.589Z,22.80
2018-04-12T08:08:54.646Z,22.00
2018-04-12T08:09:54.709Z,26.20
2018-04-12T08:10:54.770Z,21.80
2018-04-12T08:11:54.833Z,24.90
2018-04-12T08:12:54.892Z,24.20
2018-04-12T08:13:54.955Z,26.40
2018-04-12T08:14:55.019Z,24.00
2018-04-12T08:15:55.079Z,26.30
2018-04-12T08:16:55.153Z,25.10
2018-04-12T08:17:55.571Z,26.40
2018-04-12T08:18:55.264Z,24.50
2018-04-12T08:19:55.327Z,26.70
2018-04-12T08:20:55.388Z,31.50
2018-04-12T08:21:55.483Z,28.40
2018-04-12T08:22:55.512Z,27.80
2018-04-12T08:23:55.573Z,31.40
2018-04-12T08:24:55.636Z,28.30
2018-04-12T08:25:55.698Z,28.90
2018-04-12T08:26:55.760Z,27.50
2018-04-12T08:27:55.822Z,26.90
2018-04-12T08:28:55.883Z,30.20
2018-04-12T08:29:55.944Z,27.10
2018-04-12T08:30:56.007Z,29.70
2018-04-12T08:31:56.069Z,32.00
2018-04-12T08:32:56.130Z,31.60
2018-04-12T08:33:56.192Z,30.20
2018-04-12T08:34:56.255Z,28.20
2018-04-12T08:35:56.320Z,29.50
2018-04-12T08:36:56.377Z,32.60
2018-04-12T08:37:56.440Z,27.10
2018-04-12T08:38:56.502Z,29.40
2018-04-12T08:39:56.566Z,35.00
2018-04-12T08:40:56.634Z,31.80
2018-04-12T08:41:56.688Z,32.60
2018-04-12T08:42:56.757Z,33.60
2018-04-12T08:43:56.814Z,31.40
2018-04-12T08:44:56.875Z,33.40
2018-04-12T08:45:56.958Z,33.20
2018-04-12T08:46:57.001Z,33.70
2018-04-12T08:47:57.063Z,31.70
2018-04-12T08:48:57.125Z,32.00
2018-04-12T08:49:57.191Z,33.30
2018-04-12T08:50:57.253Z,33.00
2018-04-12T08:51:57.314Z,36.90
2018-04-12T08:52:57.376Z,33.20
2018-04-12T08:53:57.452Z,32.30
2018-04-12T08:54:57.502Z,38.10
2018-04-12T08:55:57.572Z,35.30
2018-04-12T08:56:57.628Z,35.60
2018-04-12T08:57:57.691Z,36.50
2018-04-12T08:58:57.754Z,35.90
2018-04-12T08:59:57.817Z,35.60
2018-04-12T09:00:57.879Z,36.10
2018-04-12T09:01:57.942Z,36.30
2018-04-12T09:02:58.005Z,35.90
2018-04-12T09:03:58.068Z,36.80
2018-04-12T09:04:58.134Z,39.10
2018-04-12T09:05:58.194Z,37.70
2018-04-12T09:06:58.258Z,36.50
2018-04-12T09:07:58.324Z,39.90
2018-04-12T09:08:58.384Z,38.60
2018-04-12T09:09:58.446Z,38.30
2018-04-12T09:10:58.511Z,37.50
2018-04-12T09:11:58.574Z,38.30
2018-04-12T09:12:58.637Z,39.20
2018-04-12T09:13:58.700Z,34.20
2018-04-12T09:14:58.764Z,37.30
2018-04-12T09:15:58.829Z,38.40
2018-04-12T09:16:58.889Z,36.00
2018-04-12T09:17:59.014Z,35.70
2018-04-12T09:18:59.018Z,35.90
2018-04-12T09:19:59.083Z,37.00
2018-04-12T09:20:59.148Z,35.40
2018-04-12T09:21:59.210Z,34.70
2018-04-12T09:22:59.275Z,37.40
2018-04-12T09:23:59.349Z,35.10
2018-04-12T09:24:59.401Z,34.30
2018-04-12T09:25:59.467Z,32.90
2018-04-12T09:26:59.532Z,35.20
2018-04-12T09:27:59.936Z,31.90
2018-04-12T09:28:59.659Z,33.20
2018-04-12T09:29:59.730Z,34.60
2018-04-12T09:30:59.790Z,34.60
2018-04-12T09:31:59.853Z,32.50
2018-04-12T09:32:59.920Z,37.00
2018-04-12T09:33:59.980Z,35.00
2018-04-12T09:35:00.045Z,32.90
2018-04-12T09:36:00.112Z,33.00
2018-04-12T09:37:00.411Z,33.90
2018-04-12T09:38:00.240Z,31.50
2018-04-12T09:39:00.343Z,32.70
2018-04-12T09:40:00.369Z,32.80
2018-04-12T09:41:00.438Z,33.80
2018-04-12T09:42:00.498Z,34.00
2018-04-12T09:43:00.568Z,38.70
2018-04-12T09:44:00.627Z,33.90
2018-04-12T09:45:00.692Z,30.20
2018-04-12T09:46:00.756Z,32.40
2018-04-12T09:47:00.821Z,30.80
2018-04-12T09:48:00.887Z,36.50
2018-04-12T09:49:00.998Z,34.30
2018-04-12T09:50:01.021Z,32.60
2018-04-12T09:51:01.080Z,30.70
2018-04-12T09:52:01.141Z,35.80
2018-04-12T09:53:01.205Z,32.60
2018-04-12T09:54:01.269Z,31.20
2018-04-12T09:55:01.334Z,34.30
2018-04-12T09:56:01.398Z,30.50
2018-04-12T09:57:01.461Z,32.20
2018-04-12T09:58:01.524Z,31.00
2018-04-12T09:59:01.591Z,30.90
2018-04-12T10:00:01.668Z,30.40
2018-04-12T10:01:02.052Z,32.60
2018-04-12T10:02:01.781Z,29.90
2018-04-12T10:03:01.845Z,31.50
2018-04-12T10:04:01.908Z,32.40
2018-04-12T10:05:01.972Z,31.10
2018-04-12T10:06:02.038Z,30.30
2018-04-12T10:07:02.101Z,31.80
2018-04-12T10:08:02.166Z,30.30
2018-04-12T10:09:02.270Z,29.80
2018-04-12T10:10:02.290Z,32.00
2018-04-12T10:11:02.958Z,29.00
2018-04-12T10:12:02.946Z,28.60
2018-04-12T10:13:03.043Z,31.70
2018-04-12T10:14:02.993Z,29.40
2018-04-12T10:15:03.191Z,29.40
2018-04-12T10:16:03.313Z,28.80
2018-04-12T10:17:03.468Z,29.80
2018-04-12T10:18:03.937Z,28.40
2018-04-12T10:19:03.522Z,32.30
2018-04-12T10:20:02.934Z,30.10
2018-04-12T10:21:03.592Z,28.50
2018-04-12T10:22:03.790Z,28.40
2018-04-12T10:23:03.790Z,30.10
2018-04-12T10:24:03.191Z,29.90
2018-04-12T10:25:03.258Z,28.80
2018-04-12T10:26:03.321Z,31.70
2018-04-12T10:27:03.385Z,27.90
2018-04-12T10:28:03.451Z,28.80
2018-04-12T10:29:03.516Z,30.00
2018-04-12T10:30:03.585Z,27.90
2018-04-12T10:31:03.647Z,28.00
2018-04-12T10:32:03.716Z,28.80
2018-04-12T10:33:03.776Z,29.50
2018-04-12T10:34:03.842Z,32.60
2018-04-12T10:35:03.907Z,27.50
2018-04-12T10:36:03.972Z,29.40
2018-04-12T10:37:04.039Z,29.40
2018-04-12T10:38:04.724Z,29.30
2018-04-12T10:39:04.822Z,29.20
2018-04-12T10:40:04.784Z,29.50
2018-04-12T10:41:04.804Z,26.50
2018-04-12T10:42:04.991Z,28.10
2018-04-12T10:43:04.745Z,26.90
2018-04-12T10:44:04.504Z,29.30
2018-04-12T10:45:04.569Z,29.30
2018-04-12T10:46:04.634Z,27.50
2018-04-12T10:47:04.704Z,25.20
2018-04-12T10:48:04.771Z,27.60
2018-04-12T10:49:04.838Z,29.10
2018-04-12T10:50:04.906Z,26.70
2018-04-12T10:51:04.976Z,28.00
2018-04-12T10:52:05.043Z,29.00
2018-04-12T10:53:05.110Z,31.10
2018-04-12T10:54:05.219Z,28.30
2018-04-12T10:55:05.250Z,26.10
2018-04-12T10:56:05.320Z,28.30
2018-04-12T10:57:05.387Z,27.50
2018-04-12T10:58:06.346Z,28.20
2018-04-12T10:59:06.091Z,28.20
2018-04-12T11:00:06.069Z,29.10
2018-04-12T11:01:05.917Z,27.20
2018-04-12T11:02:05.734Z,26.70
2018-04-12T11:03:05.805Z,29.00
2018-04-12T11:04:05.875Z,28.20
2018-04-12T11:05:05.945Z,28.20
2018-04-12T11:06:06.016Z,31.30
2018-04-12T11:07:06.091Z,30.30
2018-04-12T11:08:06.161Z,28.60
2018-04-12T11:09:06.232Z,28.70
2018-04-12T11:10:06.304Z,30.60
2018-04-12T11:11:06.376Z,27.40
2018-04-12T11:12:06.446Z,23.80
2018-04-12T11:13:06.521Z,28.80
2018-04-12T11:14:06.592Z,27.30
2018-04-12T11:15:07.316Z,26.10
2018-04-12T11:16:07.293Z,30.30
2018-04-12T11:17:07.489Z,26.40
2018-04-12T11:18:06.884Z,29.40
2018-04-12T11:19:06.988Z,26.10
2018-04-12T11:20:07.510Z,28.70
2018-04-12T11:21:07.176Z,24.50
2018-04-12T11:22:07.172Z,27.60
2018-04-12T11:23:07.248Z,27.40
2018-04-12T11:24:07.318Z,24.10
2018-04-12T11:25:07.385Z,27.20
2018-04-12T11:26:08.029Z,27.40
2018-04-12T11:27:08.117Z,25.10
2018-04-12T11:28:08.502Z,24.80
2018-04-12T11:29:07.675Z,27.30
2018-04-12T11:30:07.753Z,26.80
2018-04-12T11:31:07.819Z,26.30
2018-04-12T11:32:07.892Z,25.90
2018-04-12T11:33:07.999Z,24.80
2018-04-12T11:34:08.048Z,22.80
2018-04-12T11:35:08.130Z,25.40
2018-04-12T11:36:08.180Z,24.30
2018-04-12T11:37:08.251Z,25.60
2018-04-12T11:38:08.322Z,25.20
2018-04-12T11:39:08.395Z,25.00
2018-04-12T11:40:08.468Z,26.40
2018-04-12T11:41:08.538Z,25.00
2018-04-12T11:42:08.612Z,24.30
2018-04-12T11:43:08.685Z,22.90
2018-04-12T11:44:08.758Z,25.50
2018-04-12T11:45:08.839Z,22.50
2018-04-12T11:46:08.904Z,25.10
2018-04-12T11:47:08.976Z,28.40
2018-04-12T11:48:09.053Z,22.90
2018-04-12T11:49:09.125Z,21.80
2018-04-12T11:50:09.198Z,21.40
2018-04-12T11:51:09.271Z,21.80
2018-04-12T11:52:09.347Z,21.90
2018-04-12T11:53:09.419Z,23.60
2018-04-12T11:54:09.492Z,22.80
2018-04-12T11:55:09.565Z,19.80
2018-04-12T11:56:09.648Z,24.50
2018-04-12T11:57:09.710Z,20.30
2018-04-12T11:58:09.782Z,23.20
2018-04-12T11:59:09.856Z,19.60
2018-04-12T12:00:09.929Z,20.20
2018-04-12T12:01:10.000Z,22.80
2018-04-12T12:02:10.073Z,19.90
2018-04-12T12:03:10.146Z,15.10
2018-04-12T12:04:10.219Z,13.00
2018-04-12T12:05:10.291Z,13.40
2018-04-12T12:06:10.362Z,14.80
2018-04-12T12:07:10.433Z,14.90
2018-04-12T12:08:10.508Z,13.20
2018-04-12T12:09:10.576Z,12.10
2018-04-12T12:10:10.646Z,12.80
2018-04-12T12:11:10.719Z,11.90
2018-04-12T12:12:10.789Z,14.30
2018-04-12T12:13:10.863Z,12.20
2018-04-12T12:14:10.932Z,13.50
2018-04-12T12:15:11.003Z,13.30
2018-04-12T12:16:11.596Z,15.00
2018-04-12T12:17:11.146Z,12.80
2018-04-12T12:18:11.829Z,12.60
2018-04-12T12:19:11.285Z,12.20
2018-04-12T12:20:11.359Z,11.40
2018-04-12T12:21:11.428Z,10.50
2018-04-12T12:22:11.497Z,12.40
2018-04-12T12:23:11.568Z,11.90
2018-04-12T12:24:11.638Z,12.60
2018-04-12T12:25:11.710Z,10.30
2018-04-12T12:26:11.779Z,14.10
2018-04-12T12:27:12.237Z,14.60
2018-04-12T12:28:11.943Z,12.30
2018-04-12T12:29:11.990Z,10.30
2018-04-12T12:30:12.083Z,14.60
2018-04-12T12:31:12.129Z,13.30
2018-04-12T12:32:12.200Z,14.20
2018-04-12T12:33:12.269Z,11.70
2018-04-12T12:34:12.339Z,12.00
2018-04-12T12:35:12.409Z,11.80
2018-04-12T12:36:12.479Z,13.20
2018-04-12T12:37:12.573Z,14.50
2018-04-12T12:38:12.618Z,12.30
2018-04-12T12:39:12.686Z,13.30
2018-04-12T12:40:12.757Z,14.30
2018-04-12T12:41:12.826Z,14.50
2018-04-12T12:42:13.145Z,12.10
2018-04-12T12:43:12.964Z,11.80
2018-04-12T12:44:13.033Z,10.90
2018-04-12T12:45:13.103Z,13.10
2018-04-12T12:46:13.169Z,12.00
2018-04-12T12:47:13.243Z,12.40
2018-04-12T12:48:13.338Z,11.50
2018-04-12T12:49:13.376Z,13.10
2018-04-12T12:50:13.484Z,12.10
2018-04-12T12:51:13.537Z,13.40
2018-04-12T12:52:13.584Z,11.70
2018-04-12T12:53:13.683Z,12.40
2018-04-12T12:54:13.751Z,11.60
2018-04-12T12:55:13.817Z,13.20
2018-04-12T12:56:13.888Z,13.80
2018-04-12T12:57:13.924Z,11.10
2018-04-12T12:58:13.994Z,12.10